sensor_id;sensor_type;location;lat;lon;timestamp;P1;durP1;ratioP1;P2;durP2;ratioP2
20150;SDS011;10236;49.638;6.830;2023-02-15T00:01:48;29.77;;;17.30;;
20150;SDS011;10236;49.638;6.830;2023-02-15T00:04:18;28.93;;;17.57;;
20150;SDS011;10236;49.638;6.830;2023-02-15T00:06:44;30.13;;;17.20;;
20150;SDS011;10236;49.638;6.830;2023-02-15T00:09:10;29.23;;;19.17;;
20150;SDS011;10236;49.638;6.830;2023-02-15T00:11:45;35.40;;;20.97;;
20150;SDS011;10236;49.638;6.830;2023-02-15T00:16:46;50.33;;;23.33;;
20150;SDS011;10236;49.638;6.830;2023-02-15T00:19:19;29.70;;;17.47;;
20150;SDS011;10236;49.638;6.830;2023-02-15T00:21:45;32.40;;;17.17;;
20150;SDS011;10236;49.638;6.830;2023-02-15T00:24:13;31.23;;;17.67;;
20150;SDS011;10236;49.638;6.830;2023-02-15T00:26:43;30.17;;;16.77;;
20150;SDS011;10236;49.638;6.830;2023-02-15T00:29:15;31.23;;;17.47;;
20150;SDS011;10236;49.638;6.830;2023-02-15T00:31:44;28.90;;;16.80;;
20150;SDS011;10236;49.638;6.830;2023-02-15T00:34:11;28.23;;;16.70;;
20150;SDS011;10236;49.638;6.830;2023-02-15T00:36:41;25.97;;;14.77;;
20150;SDS011;10236;49.638;6.830;2023-02-15T00:39:10;29.83;;;16.60;;
20150;SDS011;10236;49.638;6.830;2023-02-15T00:41:54;24.33;;;15.87;;
20150;SDS011;10236;49.638;6.830;2023-02-15T00:44:20;29.87;;;16.20;;
20150;SDS011;10236;49.638;6.830;2023-02-15T00:46:45;28.73;;;15.33;;
20150;SDS011;10236;49.638;6.830;2023-02-15T00:49:14;28.33;;;16.10;;
20150;SDS011;10236;49.638;6.830;2023-02-15T00:51:40;28.50;;;16.10;;
20150;SDS011;10236;49.638;6.830;2023-02-15T00:54:06;28.53;;;15.40;;
20150;SDS011;10236;49.638;6.830;2023-02-15T00:56:35;28.03;;;15.90;;
20150;SDS011;10236;49.638;6.830;2023-02-15T00:59:01;26.60;;;14.70;;
20150;SDS011;10236;49.638;6.830;2023-02-15T01:01:30;25.83;;;14.97;;
20150;SDS011;10236;49.638;6.830;2023-02-15T01:03:56;25.57;;;14.23;;
20150;SDS011;10236;49.638;6.830;2023-02-15T01:06:32;23.23;;;13.93;;
20150;SDS011;10236;49.638;6.830;2023-02-15T01:09:00;21.17;;;13.80;;
20150;SDS011;10236;49.638;6.830;2023-02-15T01:11:32;25.87;;;14.90;;
20150;SDS011;10236;49.638;6.830;2023-02-15T01:14:04;23.97;;;14.37;;
20150;SDS011;10236;49.638;6.830;2023-02-15T01:16:30;24.17;;;14.93;;
20150;SDS011;10236;49.638;6.830;2023-02-15T01:18:59;27.53;;;14.80;;
20150;SDS011;10236;49.638;6.830;2023-02-15T01:21:30;23.97;;;14.90;;
20150;SDS011;10236;49.638;6.830;2023-02-15T01:23:59;26.03;;;14.40;;
20150;SDS011;10236;49.638;6.830;2023-02-15T01:26:30;24.50;;;14.57;;
20150;SDS011;10236;49.638;6.830;2023-02-15T01:28:56;26.13;;;14.73;;
20150;SDS011;10236;49.638;6.830;2023-02-15T01:31:25;27.43;;;15.43;;
20150;SDS011;10236;49.638;6.830;2023-02-15T01:33:58;30.57;;;16.27;;
20150;SDS011;10236;49.638;6.830;2023-02-15T01:36:24;26.83;;;15.20;;
20150;SDS011;10236;49.638;6.830;2023-02-15T01:38:50;22.87;;;15.50;;
20150;SDS011;10236;49.638;6.830;2023-02-15T01:41:16;28.50;;;16.20;;
20150;SDS011;10236;49.638;6.830;2023-02-15T01:43:46;26.83;;;14.23;;
20150;SDS011;10236;49.638;6.830;2023-02-15T01:46:20;28.10;;;15.90;;
20150;SDS011;10236;49.638;6.830;2023-02-15T01:48:48;30.50;;;16.50;;
20150;SDS011;10236;49.638;6.830;2023-02-15T01:51:17;27.03;;;16.17;;
20150;SDS011;10236;49.638;6.830;2023-02-15T01:53:59;27.00;;;14.43;;
20150;SDS011;10236;49.638;6.830;2023-02-15T01:56:31;27.60;;;14.93;;
20150;SDS011;10236;49.638;6.830;2023-02-15T01:59:01;27.03;;;14.60;;
20150;SDS011;10236;49.638;6.830;2023-02-15T02:01:28;21.77;;;13.27;;
20150;SDS011;10236;49.638;6.830;2023-02-15T02:06:30;28.17;;;15.37;;
20150;SDS011;10236;49.638;6.830;2023-02-15T02:08:59;25.60;;;15.50;;
20150;SDS011;10236;49.638;6.830;2023-02-15T02:11:31;27.43;;;15.80;;
20150;SDS011;10236;49.638;6.830;2023-02-15T02:13:58;28.57;;;16.17;;
20150;SDS011;10236;49.638;6.830;2023-02-15T02:16:28;23.77;;;14.67;;
20150;SDS011;10236;49.638;6.830;2023-02-15T02:24:01;27.13;;;15.00;;
20150;SDS011;10236;49.638;6.830;2023-02-15T02:34:37;22.37;;;13.10;;
20150;SDS011;10236;49.638;6.830;2023-02-15T02:39:55;24.00;;;15.53;;
20150;SDS011;10236;49.638;6.830;2023-02-15T02:44:59;28.30;;;15.43;;
20150;SDS011;10236;49.638;6.830;2023-02-15T02:47:32;28.90;;;15.73;;
20150;SDS011;10236;49.638;6.830;2023-02-15T02:50:00;22.93;;;14.60;;
20150;SDS011;10236;49.638;6.830;2023-02-15T03:00:35;26.43;;;15.20;;
20150;SDS011;10236;49.638;6.830;2023-02-15T03:03:06;25.07;;;13.97;;
20150;SDS011;10236;49.638;6.830;2023-02-15T03:05:35;22.83;;;14.23;;
20150;SDS011;10236;49.638;6.830;2023-02-15T03:08:02;24.57;;;14.57;;
20150;SDS011;10236;49.638;6.830;2023-02-15T03:10:31;26.37;;;14.63;;
20150;SDS011;10236;49.638;6.830;2023-02-15T03:12:57;25.90;;;14.90;;
20150;SDS011;10236;49.638;6.830;2023-02-15T03:15:25;24.63;;;15.63;;
20150;SDS011;10236;49.638;6.830;2023-02-15T03:18:12;26.73;;;16.40;;
20150;SDS011;10236;49.638;6.830;2023-02-15T03:20:38;26.63;;;15.33;;
20150;SDS011;10236;49.638;6.830;2023-02-15T03:23:05;25.20;;;14.80;;
20150;SDS011;10236;49.638;6.830;2023-02-15T03:25:39;27.17;;;15.80;;
20150;SDS011;10236;49.638;6.830;2023-02-15T03:28:07;28.27;;;15.47;;
20150;SDS011;10236;49.638;6.830;2023-02-15T03:30:34;26.00;;;15.53;;
20150;SDS011;10236;49.638;6.830;2023-02-15T03:33:00;27.40;;;15.03;;
20150;SDS011;10236;49.638;6.830;2023-02-15T03:35:30;26.57;;;15.97;;
20150;SDS011;10236;49.638;6.830;2023-02-15T03:38:00;25.00;;;15.13;;
20150;SDS011;10236;49.638;6.830;2023-02-15T03:40:28;30.77;;;16.27;;
20150;SDS011;10236;49.638;6.830;2023-02-15T03:43:18;24.00;;;14.90;;
20150;SDS011;10236;49.638;6.830;2023-02-15T03:45:46;28.40;;;14.93;;
20150;SDS011;10236;49.638;6.830;2023-02-15T03:48:30;26.87;;;15.23;;
20150;SDS011;10236;49.638;6.830;2023-02-15T03:50:59;27.77;;;15.77;;
20150;SDS011;10236;49.638;6.830;2023-02-15T03:53:45;26.37;;;16.03;;
20150;SDS011;10236;49.638;6.830;2023-02-15T03:56:12;27.70;;;15.70;;
20150;SDS011;10236;49.638;6.830;2023-02-15T03:58:38;30.47;;;17.10;;
20150;SDS011;10236;49.638;6.830;2023-02-15T04:01:27;23.37;;;14.53;;
20150;SDS011;10236;49.638;6.830;2023-02-15T04:06:56;25.73;;;15.33;;
20150;SDS011;10236;49.638;6.830;2023-02-15T04:09:22;31.33;;;16.30;;
20150;SDS011;10236;49.638;6.830;2023-02-15T04:12:07;28.67;;;17.03;;
20150;SDS011;10236;49.638;6.830;2023-02-15T04:14:33;27.97;;;16.33;;
20150;SDS011;10236;49.638;6.830;2023-02-15T04:17:17;26.60;;;15.43;;
20150;SDS011;10236;49.638;6.830;2023-02-15T04:19:43;30.43;;;17.30;;
20150;SDS011;10236;49.638;6.830;2023-02-15T04:22:28;29.57;;;17.37;;
20150;SDS011;10236;49.638;6.830;2023-02-15T04:25:13;33.00;;;16.83;;
20150;SDS011;10236;49.638;6.830;2023-02-15T04:27:40;30.07;;;16.70;;
20150;SDS011;10236;49.638;6.830;2023-02-15T04:30:06;28.97;;;18.40;;
20150;SDS011;10236;49.638;6.830;2023-02-15T04:32:32;29.77;;;17.30;;
20150;SDS011;10236;49.638;6.830;2023-02-15T04:34:58;31.90;;;17.77;;
20150;SDS011;10236;49.638;6.830;2023-02-15T04:37:24;33.13;;;16.60;;
20150;SDS011;10236;49.638;6.830;2023-02-15T04:39:50;31.27;;;17.07;;
20150;SDS011;10236;49.638;6.830;2023-02-15T04:42:16;30.33;;;18.27;;
20150;SDS011;10236;49.638;6.830;2023-02-15T04:44:42;27.63;;;17.00;;
20150;SDS011;10236;49.638;6.830;2023-02-15T04:47:11;30.37;;;18.00;;
20150;SDS011;10236;49.638;6.830;2023-02-15T04:49:37;32.43;;;18.30;;
20150;SDS011;10236;49.638;6.830;2023-02-15T04:52:03;29.50;;;17.60;;
20150;SDS011;10236;49.638;6.830;2023-02-15T04:54:29;31.67;;;18.23;;
20150;SDS011;10236;49.638;6.830;2023-02-15T04:56:55;30.37;;;17.63;;
20150;SDS011;10236;49.638;6.830;2023-02-15T04:59:21;33.20;;;18.83;;
20150;SDS011;10236;49.638;6.830;2023-02-15T05:01:46;28.67;;;17.80;;
20150;SDS011;10236;49.638;6.830;2023-02-15T05:04:12;29.27;;;18.17;;
20150;SDS011;10236;49.638;6.830;2023-02-15T05:06:38;29.63;;;18.33;;
20150;SDS011;10236;49.638;6.830;2023-02-15T05:09:04;31.77;;;18.60;;
20150;SDS011;10236;49.638;6.830;2023-02-15T05:11:30;32.37;;;18.33;;
20150;SDS011;10236;49.638;6.830;2023-02-15T05:13:56;31.07;;;19.00;;
20150;SDS011;10236;49.638;6.830;2023-02-15T05:16:22;35.57;;;20.27;;
20150;SDS011;10236;49.638;6.830;2023-02-15T05:18:48;36.23;;;21.07;;
20150;SDS011;10236;49.638;6.830;2023-02-15T05:21:14;35.80;;;21.07;;
20150;SDS011;10236;49.638;6.830;2023-02-15T05:23:41;34.27;;;20.47;;
20150;SDS011;10236;49.638;6.830;2023-02-15T05:26:09;30.83;;;20.30;;
20150;SDS011;10236;49.638;6.830;2023-02-15T05:28:54;33.83;;;19.73;;
20150;SDS011;10236;49.638;6.830;2023-02-15T05:31:20;33.47;;;19.63;;
20150;SDS011;10236;49.638;6.830;2023-02-15T05:33:46;35.13;;;20.37;;
20150;SDS011;10236;49.638;6.830;2023-02-15T05:36:12;32.90;;;21.30;;
20150;SDS011;10236;49.638;6.830;2023-02-15T05:38:39;36.60;;;20.80;;
20150;SDS011;10236;49.638;6.830;2023-02-15T05:41:05;40.13;;;20.13;;
20150;SDS011;10236;49.638;6.830;2023-02-15T05:43:32;32.73;;;18.90;;
20150;SDS011;10236;49.638;6.830;2023-02-15T05:45:58;33.47;;;18.97;;
20150;SDS011;10236;49.638;6.830;2023-02-15T05:48:24;35.70;;;20.77;;
20150;SDS011;10236;49.638;6.830;2023-02-15T05:51:00;39.80;;;20.80;;
20150;SDS011;10236;49.638;6.830;2023-02-15T05:53:27;36.67;;;20.37;;
20150;SDS011;10236;49.638;6.830;2023-02-15T05:55:53;33.90;;;19.83;;
20150;SDS011;10236;49.638;6.830;2023-02-15T05:58:23;36.37;;;20.83;;
20150;SDS011;10236;49.638;6.830;2023-02-15T06:00:49;36.03;;;20.50;;
20150;SDS011;10236;49.638;6.830;2023-02-15T06:03:15;38.43;;;22.80;;
20150;SDS011;10236;49.638;6.830;2023-02-15T06:05:41;35.27;;;20.93;;
20150;SDS011;10236;49.638;6.830;2023-02-15T06:08:07;45.20;;;22.03;;
20150;SDS011;10236;49.638;6.830;2023-02-15T06:10:33;37.67;;;21.07;;
20150;SDS011;10236;49.638;6.830;2023-02-15T06:12:59;41.63;;;23.90;;
20150;SDS011;10236;49.638;6.830;2023-02-15T06:15:25;38.20;;;21.43;;
20150;SDS011;10236;49.638;6.830;2023-02-15T06:17:51;37.77;;;22.60;;
20150;SDS011;10236;49.638;6.830;2023-02-15T06:20:17;39.67;;;22.97;;
20150;SDS011;10236;49.638;6.830;2023-02-15T06:22:43;40.70;;;22.83;;
20150;SDS011;10236;49.638;6.830;2023-02-15T06:25:09;39.50;;;22.73;;
20150;SDS011;10236;49.638;6.830;2023-02-15T06:27:36;37.17;;;22.67;;
20150;SDS011;10236;49.638;6.830;2023-02-15T06:30:02;38.23;;;23.23;;
20150;SDS011;10236;49.638;6.830;2023-02-15T06:32:29;40.97;;;23.17;;
20150;SDS011;10236;49.638;6.830;2023-02-15T06:34:54;44.30;;;23.07;;
20150;SDS011;10236;49.638;6.830;2023-02-15T06:37:20;37.83;;;22.87;;
20150;SDS011;10236;49.638;6.830;2023-02-15T06:39:46;38.60;;;22.00;;
20150;SDS011;10236;49.638;6.830;2023-02-15T06:42:12;42.00;;;22.50;;
20150;SDS011;10236;49.638;6.830;2023-02-15T06:44:38;36.93;;;20.63;;
20150;SDS011;10236;49.638;6.830;2023-02-15T06:47:04;37.20;;;21.37;;
20150;SDS011;10236;49.638;6.830;2023-02-15T06:49:30;36.97;;;21.27;;
20150;SDS011;10236;49.638;6.830;2023-02-15T06:51:56;38.37;;;21.20;;
20150;SDS011;10236;49.638;6.830;2023-02-15T06:54:22;33.50;;;21.87;;
20150;SDS011;10236;49.638;6.830;2023-02-15T06:56:49;35.17;;;20.90;;
20150;SDS011;10236;49.638;6.830;2023-02-15T06:59:15;38.87;;;22.20;;
20150;SDS011;10236;49.638;6.830;2023-02-15T07:01:41;38.90;;;21.67;;
20150;SDS011;10236;49.638;6.830;2023-02-15T07:04:07;36.87;;;21.07;;
20150;SDS011;10236;49.638;6.830;2023-02-15T07:06:33;38.03;;;21.27;;
20150;SDS011;10236;49.638;6.830;2023-02-15T07:09:00;36.10;;;21.20;;
20150;SDS011;10236;49.638;6.830;2023-02-15T07:11:26;36.93;;;21.80;;
20150;SDS011;10236;49.638;6.830;2023-02-15T07:14:11;34.43;;;20.77;;
20150;SDS011;10236;49.638;6.830;2023-02-15T07:16:37;36.20;;;21.63;;
20150;SDS011;10236;49.638;6.830;2023-02-15T07:19:03;37.73;;;21.60;;
20150;SDS011;10236;49.638;6.830;2023-02-15T07:21:29;39.07;;;22.50;;
20150;SDS011;10236;49.638;6.830;2023-02-15T07:23:56;43.03;;;22.87;;
20150;SDS011;10236;49.638;6.830;2023-02-15T07:26:22;36.73;;;22.20;;
20150;SDS011;10236;49.638;6.830;2023-02-15T07:28:48;36.50;;;21.43;;
20150;SDS011;10236;49.638;6.830;2023-02-15T07:31:14;36.87;;;21.67;;
20150;SDS011;10236;49.638;6.830;2023-02-15T07:33:40;38.47;;;23.27;;
20150;SDS011;10236;49.638;6.830;2023-02-15T07:36:06;37.97;;;22.00;;
20150;SDS011;10236;49.638;6.830;2023-02-15T07:38:38;39.03;;;23.57;;
20150;SDS011;10236;49.638;6.830;2023-02-15T07:41:12;37.50;;;21.97;;
20150;SDS011;10236;49.638;6.830;2023-02-15T07:43:39;35.57;;;22.13;;
20150;SDS011;10236;49.638;6.830;2023-02-15T07:46:06;40.37;;;23.70;;
20150;SDS011;10236;49.638;6.830;2023-02-15T07:48:32;41.40;;;22.27;;
20150;SDS011;10236;49.638;6.830;2023-02-15T07:50:59;41.80;;;24.10;;
20150;SDS011;10236;49.638;6.830;2023-02-15T07:53:25;41.20;;;23.07;;
20150;SDS011;10236;49.638;6.830;2023-02-15T07:55:51;42.00;;;24.43;;
20150;SDS011;10236;49.638;6.830;2023-02-15T07:58:18;40.53;;;22.83;;
20150;SDS011;10236;49.638;6.830;2023-02-15T08:00:44;39.97;;;23.50;;
20150;SDS011;10236;49.638;6.830;2023-02-15T08:03:25;35.43;;;22.43;;
20150;SDS011;10236;49.638;6.830;2023-02-15T08:05:55;41.97;;;23.73;;
20150;SDS011;10236;49.638;6.830;2023-02-15T08:08:21;38.83;;;21.93;;
20150;SDS011;10236;49.638;6.830;2023-02-15T08:11:03;35.23;;;21.57;;
20150;SDS011;10236;49.638;6.830;2023-02-15T08:13:49;38.23;;;21.73;;
20150;SDS011;10236;49.638;6.830;2023-02-15T08:16:26;42.27;;;22.17;;
20150;SDS011;10236;49.638;6.830;2023-02-15T08:18:52;39.77;;;24.40;;
20150;SDS011;10236;49.638;6.830;2023-02-15T08:21:18;44.47;;;28.67;;
20150;SDS011;10236;49.638;6.830;2023-02-15T08:23:44;42.00;;;26.93;;
20150;SDS011;10236;49.638;6.830;2023-02-15T08:26:10;40.77;;;24.23;;
20150;SDS011;10236;49.638;6.830;2023-02-15T08:28:36;37.67;;;22.53;;
20150;SDS011;10236;49.638;6.830;2023-02-15T08:33:31;35.67;;;22.23;;
20150;SDS011;10236;49.638;6.830;2023-02-15T08:36:01;39.10;;;23.03;;
20150;SDS011;10236;49.638;6.830;2023-02-15T08:38:28;35.77;;;18.47;;
20150;SDS011;10236;49.638;6.830;2023-02-15T08:40:54;28.90;;;17.50;;
20150;SDS011;10236;49.638;6.830;2023-02-15T08:43:19;27.13;;;16.63;;
20150;SDS011;10236;49.638;6.830;2023-02-15T08:45:45;28.50;;;17.43;;
20150;SDS011;10236;49.638;6.830;2023-02-15T08:48:11;24.47;;;16.13;;
20150;SDS011;10236;49.638;6.830;2023-02-15T08:50:37;28.50;;;16.87;;
20150;SDS011;10236;49.638;6.830;2023-02-15T08:53:03;26.50;;;16.10;;
20150;SDS011;10236;49.638;6.830;2023-02-15T08:55:29;25.07;;;14.90;;
20150;SDS011;10236;49.638;6.830;2023-02-15T08:57:56;24.70;;;14.57;;
20150;SDS011;10236;49.638;6.830;2023-02-15T09:00:22;22.10;;;15.27;;
20150;SDS011;10236;49.638;6.830;2023-02-15T09:02:48;23.17;;;13.60;;
20150;SDS011;10236;49.638;6.830;2023-02-15T09:05:15;22.47;;;13.17;;
20150;SDS011;10236;49.638;6.830;2023-02-15T09:07:41;21.60;;;13.23;;
20150;SDS011;10236;49.638;6.830;2023-02-15T09:10:07;19.23;;;11.77;;
20150;SDS011;10236;49.638;6.830;2023-02-15T09:12:33;18.53;;;11.97;;
20150;SDS011;10236;49.638;6.830;2023-02-15T09:14:59;20.90;;;14.03;;
20150;SDS011;10236;49.638;6.830;2023-02-15T09:17:25;20.90;;;13.17;;
20150;SDS011;10236;49.638;6.830;2023-02-15T09:19:51;17.60;;;12.00;;
20150;SDS011;10236;49.638;6.830;2023-02-15T09:22:17;22.63;;;11.43;;
20150;SDS011;10236;49.638;6.830;2023-02-15T09:24:43;18.33;;;11.60;;
20150;SDS011;10236;49.638;6.830;2023-02-15T09:27:08;18.47;;;12.23;;
20150;SDS011;10236;49.638;6.830;2023-02-15T09:29:34;17.83;;;10.70;;
20150;SDS011;10236;49.638;6.830;2023-02-15T09:32:00;18.37;;;11.03;;
20150;SDS011;10236;49.638;6.830;2023-02-15T09:34:26;16.57;;;10.73;;
20150;SDS011;10236;49.638;6.830;2023-02-15T09:36:52;16.93;;;11.23;;
20150;SDS011;10236;49.638;6.830;2023-02-15T09:39:19;17.93;;;11.30;;
20150;SDS011;10236;49.638;6.830;2023-02-15T09:46:47;18.70;;;11.50;;
20150;SDS011;10236;49.638;6.830;2023-02-15T09:51:47;16.40;;;10.70;;
20150;SDS011;10236;49.638;6.830;2023-02-15T09:56:55;15.20;;;9.23;;
20150;SDS011;10236;49.638;6.830;2023-02-15T09:59:37;17.97;;;10.30;;
20150;SDS011;10236;49.638;6.830;2023-02-15T10:07:18;14.60;;;10.60;;
20150;SDS011;10236;49.638;6.830;2023-02-15T10:12:40;16.63;;;11.13;;
20150;SDS011;10236;49.638;6.830;2023-02-15T10:20:49;13.47;;;10.00;;
20150;SDS011;10236;49.638;6.830;2023-02-15T10:26:00;18.33;;;11.03;;
20150;SDS011;10236;49.638;6.830;2023-02-15T10:28:33;21.07;;;12.47;;
20150;SDS011;10236;49.638;6.830;2023-02-15T10:31:10;18.97;;;12.87;;
20150;SDS011;10236;49.638;6.830;2023-02-15T10:33:39;18.53;;;12.53;;
20150;SDS011;10236;49.638;6.830;2023-02-15T10:38:42;22.33;;;13.23;;
20150;SDS011;10236;49.638;6.830;2023-02-15T10:46:15;19.20;;;11.43;;
20150;SDS011;10236;49.638;6.830;2023-02-15T10:48:48;21.43;;;13.40;;
20150;SDS011;10236;49.638;6.830;2023-02-15T10:51:30;19.33;;;11.53;;
20150;SDS011;10236;49.638;6.830;2023-02-15T11:06:39;14.60;;;9.77;;
20150;SDS011;10236;49.638;6.830;2023-02-15T11:09:09;13.55;;;9.15;;
20150;SDS011;10236;49.638;6.830;2023-02-15T11:11:37;11.45;;;9.25;;
20150;SDS011;10236;49.638;6.830;2023-02-15T11:14:09;12.68;;;9.05;;
20150;SDS011;10236;49.638;6.830;2023-02-15T11:16:36;15.23;;;9.85;;
20150;SDS011;10236;49.638;6.830;2023-02-15T11:19:06;15.63;;;9.68;;
20150;SDS011;10236;49.638;6.830;2023-02-15T11:21:39;13.60;;;10.00;;
20150;SDS011;10236;49.638;6.830;2023-02-15T11:24:17;11.77;;;9.32;;
20150;SDS011;10236;49.638;6.830;2023-02-15T11:29:23;10.18;;;8.73;;
20150;SDS011;10236;49.638;6.830;2023-02-15T11:31:59;11.45;;;9.55;;
20150;SDS011;10236;49.638;6.830;2023-02-15T11:34:31;12.52;;;9.75;;
20150;SDS011;10236;49.638;6.830;2023-02-15T11:37:05;11.27;;;9.80;;
20150;SDS011;10236;49.638;6.830;2023-02-15T11:39:32;13.43;;;10.77;;
20150;SDS011;10236;49.638;6.830;2023-02-15T11:42:00;11.70;;;10.10;;
20150;SDS011;10236;49.638;6.830;2023-02-15T11:46:53;11.30;;;10.10;;
20150;SDS011;10236;49.638;6.830;2023-02-15T11:49:24;12.10;;;9.63;;
20150;SDS011;10236;49.638;6.830;2023-02-15T11:51:52;12.77;;;10.25;;
20150;SDS011;10236;49.638;6.830;2023-02-15T11:54:19;11.48;;;10.27;;
20150;SDS011;10236;49.638;6.830;2023-02-15T11:56:47;11.32;;;10.15;;
20150;SDS011;10236;49.638;6.830;2023-02-15T11:59:14;12.88;;;11.15;;
20150;SDS011;10236;49.638;6.830;2023-02-15T12:01:44;12.90;;;10.27;;
20150;SDS011;10236;49.638;6.830;2023-02-15T12:04:14;12.90;;;10.38;;
20150;SDS011;10236;49.638;6.830;2023-02-15T12:06:43;12.13;;;10.35;;
20150;SDS011;10236;49.638;6.830;2023-02-15T12:11:44;12.25;;;10.32;;
20150;SDS011;10236;49.638;6.830;2023-02-15T12:14:11;12.15;;;10.05;;
20150;SDS011;10236;49.638;6.830;2023-02-15T12:19:19;12.73;;;9.85;;
20150;SDS011;10236;49.638;6.830;2023-02-15T12:21:49;10.95;;;9.75;;
20150;SDS011;10236;49.638;6.830;2023-02-15T12:24:23;17.27;;;12.13;;
20150;SDS011;10236;49.638;6.830;2023-02-15T12:27:03;25.02;;;15.30;;
20150;SDS011;10236;49.638;6.830;2023-02-15T12:29:33;25.55;;;16.17;;
20150;SDS011;10236;49.638;6.830;2023-02-15T12:32:01;26.77;;;17.45;;
20150;SDS011;10236;49.638;6.830;2023-02-15T12:34:29;20.27;;;15.63;;
20150;SDS011;10236;49.638;6.830;2023-02-15T12:36:58;12.13;;;8.48;;
20150;SDS011;10236;49.638;6.830;2023-02-15T12:39:27;14.90;;;9.93;;
20150;SDS011;10236;49.638;6.830;2023-02-15T12:44:20;15.77;;;11.02;;
20150;SDS011;10236;49.638;6.830;2023-02-15T12:47:31;13.90;;;9.75;;
20150;SDS011;10236;49.638;6.830;2023-02-15T12:49:38;10.07;;;8.30;;
20150;SDS011;10236;49.638;6.830;2023-02-15T12:52:05;13.30;;;9.68;;
20150;SDS011;10236;49.638;6.830;2023-02-15T12:54:34;11.48;;;8.40;;
20150;SDS011;10236;49.638;6.830;2023-02-15T12:57:12;39.28;;;20.88;;
20150;SDS011;10236;49.638;6.830;2023-02-15T12:59:47;12.65;;;8.13;;
20150;SDS011;10236;49.638;6.830;2023-02-15T13:02:55;9.93;;;7.05;;
20150;SDS011;10236;49.638;6.830;2023-02-15T13:05:45;39.72;;;19.30;;
20150;SDS011;10236;49.638;6.830;2023-02-15T13:10:40;38.80;;;18.67;;
20150;SDS011;10236;49.638;6.830;2023-02-15T13:13:10;24.00;;;13.90;;
20150;SDS011;10236;49.638;6.830;2023-02-15T13:15:38;29.40;;;15.47;;
20150;SDS011;10236;49.638;6.830;2023-02-15T13:18:05;34.30;;;18.20;;
20150;SDS011;10236;49.638;6.830;2023-02-15T13:20:31;80.80;;;38.97;;
20150;SDS011;10236;49.638;6.830;2023-02-15T13:23:02;15.13;;;10.27;;
20150;SDS011;10236;49.638;6.830;2023-02-15T13:25:31;13.83;;;9.17;;
20150;SDS011;10236;49.638;6.830;2023-02-15T13:28:02;16.20;;;10.70;;
20150;SDS011;10236;49.638;6.830;2023-02-15T13:30:31;20.97;;;12.40;;
20150;SDS011;10236;49.638;6.830;2023-02-15T13:33:01;19.03;;;10.93;;
20150;SDS011;10236;49.638;6.830;2023-02-15T13:35:30;16.17;;;10.10;;
20150;SDS011;10236;49.638;6.830;2023-02-15T13:38:14;19.33;;;11.77;;
20150;SDS011;10236;49.638;6.830;2023-02-15T13:40:44;20.93;;;13.93;;
20150;SDS011;10236;49.638;6.830;2023-02-15T13:43:16;13.27;;;10.38;;
20150;SDS011;10236;49.638;6.830;2023-02-15T13:48:20;15.82;;;9.48;;
20150;SDS011;10236;49.638;6.830;2023-02-15T13:51:01;17.50;;;12.68;;
20150;SDS011;10236;49.638;6.830;2023-02-15T13:53:42;19.83;;;12.13;;
20150;SDS011;10236;49.638;6.830;2023-02-15T13:59:00;14.20;;;9.63;;
20150;SDS011;10236;49.638;6.830;2023-02-15T14:01:40;15.32;;;11.20;;
20150;SDS011;10236;49.638;6.830;2023-02-15T14:07:00;20.43;;;10.53;;
20150;SDS011;10236;49.638;6.830;2023-02-15T14:15:26;16.83;;;9.67;;
20150;SDS011;10236;49.638;6.830;2023-02-15T14:18:00;17.40;;;10.20;;
20150;SDS011;10236;49.638;6.830;2023-02-15T14:20:41;18.33;;;10.83;;
20150;SDS011;10236;49.638;6.830;2023-02-15T14:23:11;17.90;;;10.80;;
20150;SDS011;10236;49.638;6.830;2023-02-15T14:25:42;17.37;;;10.37;;
20150;SDS011;10236;49.638;6.830;2023-02-15T14:28:13;21.33;;;11.87;;
20150;SDS011;10236;49.638;6.830;2023-02-15T14:30:48;18.33;;;10.63;;
20150;SDS011;10236;49.638;6.830;2023-02-15T14:35:50;18.07;;;10.97;;
20150;SDS011;10236;49.638;6.830;2023-02-15T14:40:51;21.00;;;11.43;;
20150;SDS011;10236;49.638;6.830;2023-02-15T14:48:54;20.63;;;11.63;;
20150;SDS011;10236;49.638;6.830;2023-02-15T14:54:07;18.83;;;11.10;;
20150;SDS011;10236;49.638;6.830;2023-02-15T14:56:33;20.73;;;12.47;;
20150;SDS011;10236;49.638;6.830;2023-02-15T14:59:21;18.67;;;11.10;;
20150;SDS011;10236;49.638;6.830;2023-02-15T15:01:58;23.43;;;11.13;;
20150;SDS011;10236;49.638;6.830;2023-02-15T15:05:14;23.80;;;12.17;;
20150;SDS011;10236;49.638;6.830;2023-02-15T15:07:18;17.30;;;11.13;;
20150;SDS011;10236;49.638;6.830;2023-02-15T15:09:46;22.57;;;12.20;;
20150;SDS011;10236;49.638;6.830;2023-02-15T15:14:53;19.27;;;11.67;;
20150;SDS011;10236;49.638;6.830;2023-02-15T15:22:32;19.50;;;11.03;;
20150;SDS011;10236;49.638;6.830;2023-02-15T15:24:59;20.80;;;12.50;;
20150;SDS011;10236;49.638;6.830;2023-02-15T15:27:38;18.90;;;12.50;;
20150;SDS011;10236;49.638;6.830;2023-02-15T15:35:26;21.87;;;12.33;;
20150;SDS011;10236;49.638;6.830;2023-02-15T15:41:10;18.97;;;12.23;;
20150;SDS011;10236;49.638;6.830;2023-02-15T15:46:06;21.83;;;12.67;;
20150;SDS011;10236;49.638;6.830;2023-02-15T15:48:35;24.43;;;13.70;;
20150;SDS011;10236;49.638;6.830;2023-02-15T15:51:24;20.90;;;13.53;;
20150;SDS011;10236;49.638;6.830;2023-02-15T15:53:52;23.53;;;14.17;;
20150;SDS011;10236;49.638;6.830;2023-02-15T15:56:29;21.47;;;12.70;;
20150;SDS011;10236;49.638;6.830;2023-02-15T15:59:00;19.37;;;13.43;;
20150;SDS011;10236;49.638;6.830;2023-02-15T16:01:27;21.67;;;13.03;;
20150;SDS011;10236;49.638;6.830;2023-02-15T16:03:54;23.13;;;13.80;;
20150;SDS011;10236;49.638;6.830;2023-02-15T16:06:29;20.00;;;13.07;;
20150;SDS011;10236;49.638;6.830;2023-02-15T16:08:55;20.60;;;13.50;;
20150;SDS011;10236;49.638;6.830;2023-02-15T16:11:25;20.17;;;12.90;;
20150;SDS011;10236;49.638;6.830;2023-02-15T16:13:52;20.60;;;11.47;;
20150;SDS011;10236;49.638;6.830;2023-02-15T16:16:20;18.83;;;12.60;;
20150;SDS011;10236;49.638;6.830;2023-02-15T16:18:46;21.27;;;12.60;;
20150;SDS011;10236;49.638;6.830;2023-02-15T16:21:20;22.67;;;14.23;;
20150;SDS011;10236;49.638;6.830;2023-02-15T16:23:57;24.53;;;13.77;;
20150;SDS011;10236;49.638;6.830;2023-02-15T16:29:17;26.63;;;16.53;;
20150;SDS011;10236;49.638;6.830;2023-02-15T16:31:56;20.93;;;13.90;;
20150;SDS011;10236;49.638;6.830;2023-02-15T16:34:22;25.97;;;13.27;;
20150;SDS011;10236;49.638;6.830;2023-02-15T16:36:48;19.87;;;13.33;;
20150;SDS011;10236;49.638;6.830;2023-02-15T16:39:19;19.83;;;13.40;;
20150;SDS011;10236;49.638;6.830;2023-02-15T16:41:45;26.63;;;13.70;;
20150;SDS011;10236;49.638;6.830;2023-02-15T16:44:16;24.00;;;13.50;;
20150;SDS011;10236;49.638;6.830;2023-02-15T16:46:43;27.50;;;14.10;;
20150;SDS011;10236;49.638;6.830;2023-02-15T16:49:15;22.87;;;12.90;;
20150;SDS011;10236;49.638;6.830;2023-02-15T16:51:42;26.37;;;13.20;;
20150;SDS011;10236;49.638;6.830;2023-02-15T16:54:15;26.53;;;15.00;;
20150;SDS011;10236;49.638;6.830;2023-02-15T16:56:42;25.77;;;14.07;;
20150;SDS011;10236;49.638;6.830;2023-02-15T16:59:16;20.00;;;14.13;;
20150;SDS011;10236;49.638;6.830;2023-02-15T17:01:45;23.43;;;15.57;;
20150;SDS011;10236;49.638;6.830;2023-02-15T17:04:24;25.83;;;16.00;;
20150;SDS011;10236;49.638;6.830;2023-02-15T17:06:58;26.43;;;16.47;;